Time;durP1;ratioP1;P1;durP2;ratioP2;P2;SDS_P1;SDS_P2;PMS_P1;PMS_P2;Temp;Humidity;BMP_temperature;BMP_pressure;BME280_temperature;BME280_humidity;BME280_pressure;Samples;Min_cycle;Max_cycle;Signal;HPM_P1;HPM_P2
2023/03/31 00:01:34;;;;;;;;;1.67;1.67;;;;;-147.17;100.00;-15917.19;5037215;28;51079;-48
2023/03/31 00:04:03;;;;;;;;;2.00;2.00;;;;;-147.17;100.00;-15917.19;5035142;28;50972;-48
2023/03/31 00:06:40;;;;;;;;;2.00;1.67;;;;;-147.17;100.00;-15917.19;5048296;28;51172;-50
2023/03/31 00:09:20;;;;;;;;;3.00;2.67;;;;;-147.17;100.00;-15917.19;5047175;28;51207;-49
2023/03/31 00:11:48;;;;;;;;;3.67;3.67;;;;;-147.17;100.00;-15917.19;5047800;28;52756;-50
2023/03/31 00:14:14;;;;;;;;;3.00;3.00;;;;;-147.17;100.00;-15917.19;5036216;28;51166;-50
2023/03/31 00:16:40;;;;;;;;;6.67;3.67;;;;;-147.17;100.00;-15917.19;5033939;28;51127;-51
2023/03/31 00:19:08;;;;;;;;;2.00;1.67;;;;;-147.17;100.00;-15917.19;5033576;28;51207;-49
2023/03/31 00:21:35;;;;;;;;;2.67;2.00;;;;;-147.17;100.00;-15917.19;5035222;28;51852;-47
2023/03/31 00:24:05;;;;;;;;;4.33;3.00;;;;;-147.17;100.00;-15917.19;5034078;28;51216;-49
2023/03/31 00:26:32;;;;;;;;;3.00;2.00;;;;;-147.17;100.00;-15917.19;5053327;28;50931;-48
2023/03/31 00:28:58;;;;;;;;;1.33;1.00;;;;;-147.17;100.00;-15917.19;5040083;28;51157;-50
2023/03/31 00:31:26;;;;;;;;;3.67;2.67;;;;;-147.17;100.00;-15917.19;5040160;28;52210;-50
2023/03/31 00:33:51;;;;;;;;;1.67;1.67;;;;;-147.17;100.00;-15917.19;5047767;28;51147;-49
2023/03/31 00:36:20;;;;;;;;;3.67;3.00;;;;;-147.17;100.00;-15917.19;5032219;28;51229;-48
2023/03/31 00:38:50;;;;;;;;;2.33;2.00;;;;;-147.17;100.00;-15917.19;5042523;28;51146;-47
2023/03/31 00:41:16;;;;;;;;;6.00;4.00;;;;;-147.17;100.00;-15917.19;5037737;28;53313;-49
2023/03/31 00:44:03;;;;;;;;;2.33;2.00;;;;;-147.17;100.00;-15917.19;5035546;28;51142;-48
2023/03/31 00:46:56;;;;;;;;;3.00;2.00;;;;;-147.17;100.00;-15917.19;5033055;28;51015;-48
2023/03/31 00:49:33;;;;;;;;;2.00;1.00;;;;;-147.17;100.00;-15917.19;5050761;28;51108;-48
2023/03/31 00:52:07;;;;;;;;;2.00;2.00;;;;;-147.17;100.00;-15917.19;5045961;28;51951;-49
2023/03/31 00:54:35;;;;;;;;;2.67;1.00;;;;;-147.17;100.00;-15917.19;5045022;28;51209;-47
2023/03/31 00:57:05;;;;;;;;;3.67;3.00;;;;;-147.17;100.00;-15917.19;5043740;28;51268;-50
2023/03/31 00:59:35;;;;;;;;;3.33;3.00;;;;;-147.17;100.00;-15917.19;5048736;28;51226;-48
2023/03/31 01:02:02;;;;;;;;;4.00;4.00;;;;;-147.17;100.00;-15917.19;5043348;28;53369;-48
2023/03/31 01:04:33;;;;;;;;;1.00;0.00;;;;;-147.17;100.00;-15917.19;5032770;28;50964;-48
2023/03/31 01:07:08;;;;;;;;;4.33;4.00;;;;;-147.17;100.00;-15917.19;5049983;28;51139;-47
2023/03/31 01:09:34;;;;;;;;;2.00;2.00;;;;;-147.17;100.00;-15917.19;5044612;28;51117;-48
2023/03/31 01:12:03;;;;;;;;;2.00;2.00;;;;;-147.17;100.00;-15917.19;5039432;28;51880;-49
2023/03/31 01:14:30;;;;;;;;;3.00;2.00;;;;;-147.17;100.00;-15917.19;5041902;28;50974;-49
2023/03/31 01:16:55;;;;;;;;;1.00;1.00;;;;;-147.17;100.00;-15917.19;5042675;28;51194;-50
2023/03/31 01:19:38;;;;;;;;;1.33;1.33;;;;;-147.17;100.00;-15917.19;5045403;28;51352;-47
2023/03/31 01:22:37;;;;;;;;;2.00;1.33;;;;;-147.17;100.00;-15917.19;5040686;28;51124;-48
2023/03/31 01:25:14;;;;;;;;;2.00;2.00;;;;;-147.17;100.00;-15917.19;5032574;28;51173;-49
2023/03/31 01:27:52;;;;;;;;;4.00;2.67;;;;;-147.17;100.00;-15917.19;5033019;28;50982;-50
2023/03/31 01:30:55;;;;;;;;;2.67;2.67;;;;;-147.17;100.00;-15917.19;5031934;28;50918;-51
2023/03/31 01:33:45;;;;;;;;;3.67;2.00;;;;;-147.17;100.00;-15917.19;5038873;28;51418;-49
2023/03/31 01:36:41;;;;;;;;;3.33;1.67;;;;;-147.17;100.00;-15917.19;5046231;28;51396;-50
2023/03/31 01:39:18;;;;;;;;;2.33;1.33;;;;;-147.17;100.00;-15917.19;5046948;28;51157;-50
2023/03/31 01:41:56;;;;;;;;;1.00;1.00;;;;;-147.17;100.00;-15917.19;5050077;28;51236;-48
2023/03/31 01:44:36;;;;;;;;;1.67;1.00;;;;;-147.17;100.00;-15917.19;5052231;28;50982;-48
2023/03/31 01:47:21;;;;;;;;;2.67;1.00;;;;;-147.17;100.00;-15917.19;5045637;28;51253;-48
2023/03/31 01:50:05;;;;;;;;;2.00;2.00;;;;;-147.17;100.00;-15917.19;5048371;28;51078;-50
2023/03/31 01:52:40;;;;;;;;;2.00;1.00;;;;;-147.17;100.00;-15917.19;5044603;28;51085;-50
2023/03/31 01:55:19;;;;;;;;;3.00;3.00;;;;;-147.17;100.00;-15917.19;5031439;28;51104;-47
2023/03/31 01:57:52;;;;;;;;;3.33;3.00;;;;;-147.17;100.00;-15917.19;5033409;28;51142;-46
2023/03/31 02:00:28;;;;;;;;;3.00;3.00;;;;;-147.17;100.00;-15917.19;5035860;28;51185;-48
2023/03/31 02:03:04;;;;;;;;;2.00;2.00;;;;;-147.17;100.00;-15917.19;5050010;28;51076;-50
2023/03/31 02:05:39;;;;;;;;;2.00;2.00;;;;;-147.17;100.00;-15917.19;5035148;28;51393;-48
2023/03/31 02:08:06;;;;;;;;;3.00;2.00;;;;;-147.17;100.00;-15917.19;5045660;28;52234;-51
2023/03/31 02:10:34;;;;;;;;;2.00;2.00;;;;;-147.17;100.00;-15917.19;5036955;28;50900;-47
2023/03/31 02:13:01;;;;;;;;;2.00;2.00;;;;;-147.17;100.00;-15917.19;5037292;28;51745;-48
2023/03/31 02:15:37;;;;;;;;;1.00;1.00;;;;;-147.17;100.00;-15917.19;5034944;28;51894;-47
2023/03/31 02:18:09;;;;;;;;;2.00;1.00;;;;;-147.17;100.00;-15917.19;5050316;28;51204;-47
2023/03/31 02:20:36;;;;;;;;;3.00;2.67;;;;;-147.17;100.00;-15917.19;5051190;28;51118;-48
2023/03/31 02:23:02;;;;;;;;;2.67;2.00;;;;;-147.17;100.00;-15917.19;5050193;28;51121;-51
2023/03/31 02:25:37;;;;;;;;;2.00;2.00;;;;;-147.17;100.00;-15917.19;5046570;28;51114;-50
2023/03/31 02:28:11;;;;;;;;;2.33;2.00;;;;;-147.17;100.00;-15917.19;5046890;28;51169;-48
2023/03/31 02:30:53;;;;;;;;;3.00;2.33;;;;;-147.17;100.00;-15917.19;5051072;28;51167;-47
2023/03/31 02:33:18;;;;;;;;;3.00;3.00;;;;;-147.17;100.00;-15917.19;5033452;28;51059;-49
2023/03/31 02:35:44;;;;;;;;;2.00;2.00;;;;;-147.17;100.00;-15917.19;5039032;28;51917;-51
2023/03/31 02:38:10;;;;;;;;;2.00;1.00;;;;;-147.17;100.00;-15917.19;5030996;28;51181;-48
2023/03/31 02:40:36;;;;;;;;;2.67;2.00;;;;;-147.17;100.00;-15917.19;5041395;28;50934;-47
2023/03/31 02:43:01;;;;;;;;;2.00;2.00;;;;;-147.17;100.00;-15917.19;5048935;28;51401;-48
2023/03/31 02:45:45;;;;;;;;;2.33;2.33;;;;;-147.17;100.00;-15917.19;5051019;28;51112;-49
2023/03/31 02:48:31;;;;;;;;;3.00;2.00;;;;;-147.17;100.00;-15917.19;5042279;28;51042;-49
2023/03/31 02:51:06;;;;;;;;;3.33;2.67;;;;;-147.17;100.00;-15917.19;5046507;28;51135;-48
2023/03/31 02:53:31;;;;;;;;;2.25;2.00;;;;;-147.17;100.00;-15917.19;5048654;28;51040;-48
2023/03/31 02:56:08;;;;;;;;;3.67;3.00;;;;;-147.17;100.00;-15917.19;5043158;28;51835;-48
2023/03/31 02:59:04;;;;;;;;;2.00;2.00;;;;;-147.17;100.00;-15917.19;5047935;28;51233;-47
2023/03/31 03:01:57;;;;;;;;;2.00;2.00;;;;;-147.17;100.00;-15917.19;5031810;28;51172;-46
2023/03/31 03:04:35;;;;;;;;;2.00;2.00;;;;;-147.17;100.00;-15917.19;5040065;28;51168;-48
2023/03/31 03:07:23;;;;;;;;;3.00;2.33;;;;;-147.17;100.00;-15917.19;5038583;28;51153;-49
2023/03/31 03:09:55;;;;;;;;;3.67;3.67;;;;;-147.17;100.00;-15917.19;5029138;28;50924;-47
2023/03/31 03:12:27;;;;;;;;;4.00;3.00;;;;;-147.17;100.00;-15917.19;5049240;28;50972;-48
2023/03/31 03:14:59;;;;;;;;;4.00;3.33;;;;;-147.17;100.00;-15917.19;5049444;28;51254;-51
2023/03/31 03:17:48;;;;;;;;;2.00;1.33;;;;;-147.17;100.00;-15917.19;5054999;28;50975;-49
2023/03/31 03:20:15;;;;;;;;;2.67;2.33;;;;;-147.17;100.00;-15917.19;5050215;28;51184;-48
2023/03/31 03:22:41;;;;;;;;;3.00;2.67;;;;;-147.17;100.00;-15917.19;5038859;28;51250;-47
2023/03/31 03:25:10;;;;;;;;;3.67;3.00;;;;;-147.17;100.00;-15917.19;5052566;28;50924;-48
2023/03/31 03:27:36;;;;;;;;;5.00;3.33;;;;;-147.17;100.00;-15917.19;5054740;28;51121;-51
2023/03/31 03:30:04;;;;;;;;;4.00;3.33;;;;;-147.17;100.00;-15917.19;5053405;28;51026;-52
2023/03/31 03:32:30;;;;;;;;;5.67;4.67;;;;;-147.17;100.00;-15917.19;5035717;28;51088;-50
2023/03/31 03:34:56;;;;;;;;;3.00;3.00;;;;;-147.17;100.00;-15917.19;5047647;28;51411;-51
2023/03/31 03:37:21;;;;;;;;;3.33;3.00;;;;;-147.17;100.00;-15917.19;5046570;28;52840;-48
2023/03/31 03:39:46;;;;;;;;;2.00;2.00;;;;;-147.17;100.00;-15917.19;5034537;28;50924;-48
2023/03/31 03:42:13;;;;;;;;;3.67;3.00;;;;;-147.17;100.00;-15917.19;5043244;28;51510;-47
2023/03/31 03:44:38;;;;;;;;;5.25;4.50;;;;;-147.17;100.00;-15917.19;5046857;28;51007;-47
2023/03/31 03:47:04;;;;;;;;;4.00;3.67;;;;;-147.17;100.00;-15917.19;5052753;28;57018;-50
2023/03/31 03:49:29;;;;;;;;;2.33;2.33;;;;;-147.17;100.00;-15917.19;5043461;28;50982;-48
2023/03/31 03:51:55;;;;;;;;;3.00;3.00;;;;;-147.17;100.00;-15917.19;5045999;28;51059;-47
2023/03/31 03:54:20;;;;;;;;;5.00;3.00;;;;;-147.17;100.00;-15917.19;5037253;28;50932;-49
2023/03/31 03:56:45;;;;;;;;;4.33;3.67;;;;;-147.17;100.00;-15917.19;5044994;28;52656;-48
2023/03/31 03:59:11;;;;;;;;;3.75;3.75;;;;;-147.17;100.00;-15917.19;5035376;28;51126;-48
2023/03/31 04:01:36;;;;;;;;;3.67;2.33;;;;;-147.17;100.00;-15917.19;5035106;28;52526;-48
2023/03/31 04:04:02;;;;;;;;;4.00;3.00;;;;;-147.17;100.00;-15917.19;5050632;28;51125;-50
2023/03/31 04:06:27;;;;;;;;;4.00;3.00;;;;;-147.17;100.00;-15917.19;5038765;28;51208;-48
2023/03/31 04:08:53;;;;;;;;;3.00;2.00;;;;;-147.17;100.00;-15917.19;5030896;28;52319;-48
2023/03/31 04:11:19;;;;;;;;;4.00;3.00;;;;;-147.17;100.00;-15917.19;5048088;28;51514;-50
2023/03/31 04:13:45;;;;;;;;;6.00;4.00;;;;;-147.17;100.00;-15917.19;5052575;28;51085;-49
2023/03/31 04:16:11;;;;;;;;;4.00;4.00;;;;;-147.17;100.00;-15917.19;5050324;28;51177;-52
2023/03/31 04:18:41;;;;;;;;;5.67;5.67;;;;;-147.17;100.00;-15917.19;5040250;28;51261;-48
2023/03/31 04:21:21;;;;;;;;;9.50;6.25;;;;;-147.17;100.00;-15917.19;5062263;28;51075;-47
2023/03/31 04:23:48;;;;;;;;;7.50;6.50;;;;;-147.17;100.00;-15917.19;5052223;28;50911;-49
2023/03/31 04:26:16;;;;;;;;;11.75;9.50;;;;;-147.17;100.00;-15917.19;5051295;28;51160;-47
2023/03/31 04:28:45;;;;;;;;;9.25;9.00;;;;;-147.17;100.00;-15917.19;5050944;28;51138;-48
2023/03/31 04:31:23;;;;;;;;;12.00;12.00;;;;;-147.17;100.00;-15917.19;5049887;28;51090;-49
2023/03/31 04:33:50;;;;;;;;;13.25;12.25;;;;;-147.17;100.00;-15917.19;5051293;28;51125;-50
2023/03/31 04:36:18;;;;;;;;;14.00;10.25;;;;;-147.17;100.00;-15917.19;5047742;28;53523;-49
2023/03/31 04:38:49;;;;;;;;;11.75;10.25;;;;;-147.17;100.00;-15917.19;5043915;28;51115;-48
2023/03/31 04:41:17;;;;;;;;;13.75;12.25;;;;;-147.17;100.00;-15917.19;5043545;28;51265;-48
2023/03/31 04:43:43;;;;;;;;;10.00;8.00;;;;;-147.17;100.00;-15917.19;5033074;28;51036;-49
2023/03/31 04:46:09;;;;;;;;;8.00;5.67;;;;;-147.17;100.00;-15917.19;5035887;28;51903;-48
2023/03/31 04:48:35;;;;;;;;;7.33;6.67;;;;;-147.17;100.00;-15917.19;5042395;28;51126;-50
2023/03/31 04:51:00;;;;;;;;;3.00;2.00;;;;;-147.17;100.00;-15917.19;5036113;28;51857;-51
2023/03/31 04:53:26;;;;;;;;;6.33;4.67;;;;;-147.17;100.00;-15917.19;5037631;28;50948;-51
2023/03/31 04:55:52;;;;;;;;;4.33;4.00;;;;;-147.17;100.00;-15917.19;5042340;28;51394;-48
2023/03/31 04:58:17;;;;;;;;;7.00;5.00;;;;;-147.17;100.00;-15917.19;5050929;28;51116;-48
2023/03/31 05:00:43;;;;;;;;;7.33;4.33;;;;;-147.17;100.00;-15917.19;5048918;28;50972;-51
2023/03/31 05:03:08;;;;;;;;;8.75;6.50;;;;;-147.17;100.00;-15917.19;5046081;28;51211;-49
2023/03/31 05:05:35;;;;;;;;;5.33;5.00;;;;;-147.17;100.00;-15917.19;5042265;28;53194;-48
2023/03/31 05:08:01;;;;;;;;;5.33;3.33;;;;;-147.17;100.00;-15917.19;5045626;28;52047;-48
2023/03/31 05:10:26;;;;;;;;;3.00;1.00;;;;;-147.17;100.00;-15917.19;5036203;28;51239;-48
2023/03/31 05:12:51;;;;;;;;;5.67;5.33;;;;;-147.17;100.00;-15917.19;5036595;28;51206;-49
2023/03/31 05:15:17;;;;;;;;;5.00;3.00;;;;;-147.17;100.00;-15917.19;5030814;28;52231;-46
2023/03/31 05:17:43;;;;;;;;;6.00;4.67;;;;;-147.17;100.00;-15917.19;5043943;28;51302;-48
2023/03/31 05:20:10;;;;;;;;;9.00;6.00;;;;;-147.17;100.00;-15917.19;5045202;28;51148;-47
2023/03/31 05:22:37;;;;;;;;;4.00;3.00;;;;;-147.17;100.00;-15917.19;5014620;28;51324;-49
2023/03/31 05:25:05;;;;;;;;;5.00;4.00;;;;;-147.17;100.00;-15917.19;5032008;28;51897;-47
2023/03/31 05:27:30;;;;;;;;;4.67;4.00;;;;;-147.17;100.00;-15917.19;5042070;28;51006;-46
2023/03/31 05:29:55;;;;;;;;;4.33;3.67;;;;;-147.17;100.00;-15917.19;5043018;28;51217;-48
2023/03/31 05:32:21;;;;;;;;;5.67;4.00;;;;;-147.17;100.00;-15917.19;5047716;28;51280;-48
2023/03/31 05:34:51;;;;;;;;;3.67;2.33;;;;;-147.17;100.00;-15917.19;5041580;28;51427;-48
2023/03/31 05:37:20;;;;;;;;;8.67;5.33;;;;;-147.17;100.00;-15917.19;5040844;28;51328;-45
2023/03/31 05:39:45;;;;;;;;;5.00;4.00;;;;;-147.17;100.00;-15917.19;5051025;28;51163;-48
2023/03/31 05:42:11;;;;;;;;;3.00;3.00;;;;;-147.17;100.00;-15917.19;5053068;28;51186;-46
2023/03/31 05:44:36;;;;;;;;;4.67;3.33;;;;;-147.17;100.00;-15917.19;5050991;28;52289;-47
2023/03/31 05:47:02;;;;;;;;;5.67;4.33;;;;;-147.17;100.00;-15917.19;5048244;28;51123;-47
2023/03/31 05:49:28;;;;;;;;;4.67;4.00;;;;;-147.17;100.00;-15917.19;5050553;28;51297;-47
2023/03/31 05:51:53;;;;;;;;;6.33;5.00;;;;;-147.17;100.00;-15917.19;5052616;28;51097;-48
2023/03/31 05:54:18;;;;;;;;;3.00;3.00;;;;;-147.17;100.00;-15917.19;5052566;28;52220;-46
2023/03/31 05:56:44;;;;;;;;;6.00;3.00;;;;;-147.17;100.00;-15917.19;5050755;28;51147;-47
2023/03/31 05:59:09;;;;;;;;;7.67;4.33;;;;;-147.17;100.00;-15917.19;5037446;28;51109;-47
2023/03/31 06:01:35;;;;;;;;;5.00;4.33;;;;;-147.17;100.00;-15917.19;5037876;28;51159;-46
2023/03/31 06:04:00;;;;;;;;;4.33;4.00;;;;;-147.17;100.00;-15917.19;5033978;28;51196;-48
2023/03/31 06:06:26;;;;;;;;;5.00;3.00;;;;;-147.17;100.00;-15917.19;5041459;28;51081;-47
2023/03/31 06:08:52;;;;;;;;;4.67;3.67;;;;;-147.17;100.00;-15917.19;5044208;28;51010;-45
2023/03/31 06:11:20;;;;;;;;;6.67;4.00;;;;;-147.17;100.00;-15917.19;5049547;28;51531;-46
2023/03/31 06:13:47;;;;;;;;;2.00;2.00;;;;;-147.17;100.00;-15917.19;5033927;28;51985;-50
2023/03/31 06:16:14;;;;;;;;;5.33;4.33;;;;;-147.17;100.00;-15917.19;5031507;28;50900;-48
2023/03/31 06:18:40;;;;;;;;;6.33;4.33;;;;;-147.17;100.00;-15917.19;5037752;28;51272;-48
2023/03/31 06:21:07;;;;;;;;;9.33;6.67;;;;;-147.17;100.00;-15917.19;5033586;28;51129;-46
2023/03/31 06:23:33;;;;;;;;;8.00;7.00;;;;;-147.17;100.00;-15917.19;5051429;28;51048;-47
2023/03/31 06:26:07;;;;;;;;;7.00;6.00;;;;;-147.17;100.00;-15917.19;5050518;28;51140;-47
2023/03/31 06:28:35;;;;;;;;;6.67;5.00;;;;;-147.17;100.00;-15917.19;5051825;28;51157;-49
2023/03/31 06:31:11;;;;;;;;;4.33;4.33;;;;;-147.17;100.00;-15917.19;5035653;28;51348;-47
2023/03/31 06:33:38;;;;;;;;;5.25;4.25;;;;;-147.17;100.00;-15917.19;5031981;28;52034;-47
2023/03/31 06:36:05;;;;;;;;;4.33;3.67;;;;;-147.17;100.00;-15917.19;5032369;28;51094;-47
2023/03/31 06:38:32;;;;;;;;;5.00;3.00;;;;;-147.17;100.00;-15917.19;5048016;28;51158;-47
2023/03/31 06:40:57;;;;;;;;;8.75;8.00;;;;;-147.17;100.00;-15917.19;5035922;28;50912;-48
2023/03/31 06:43:23;;;;;;;;;8.33;6.00;;;;;-147.17;100.00;-15917.19;5035127;28;53420;-48
2023/03/31 06:45:48;;;;;;;;;6.00;5.00;;;;;-147.17;100.00;-15917.19;5034742;28;51312;-48
2023/03/31 06:48:14;;;;;;;;;5.67;5.33;;;;;-147.17;100.00;-15917.19;5035434;28;50999;-47
2023/03/31 06:50:40;;;;;;;;;8.67;6.33;;;;;-147.17;100.00;-15917.19;5035819;28;51389;-47
2023/03/31 06:53:07;;;;;;;;;6.75;4.50;;;;;-147.17;100.00;-15917.19;5035110;28;52022;-48
2023/03/31 06:55:32;;;;;;;;;5.33;4.00;;;;;-147.17;100.00;-15917.19;5034937;28;51172;-49
2023/03/31 06:57:58;;;;;;;;;4.33;4.00;;;;;-147.17;100.00;-15917.19;5047045;28;51160;-48
2023/03/31 07:00:24;;;;;;;;;8.33;6.33;;;;;-147.17;100.00;-15917.19;5043784;28;51247;-48
2023/03/31 07:02:50;;;;;;;;;6.00;5.00;;;;;-147.17;100.00;-15917.19;5035097;28;51185;-47
2023/03/31 07:05:18;;;;;;;;;10.00;6.00;;;;;-147.17;100.00;-15917.19;5035142;28;51068;-47
2023/03/31 07:07:44;;;;;;;;;12.33;6.00;;;;;-147.17;100.00;-15917.19;5034987;28;51071;-47
2023/03/31 07:10:09;;;;;;;;;7.67;5.67;;;;;-147.17;100.00;-15917.19;5036146;28;51159;-46
2023/03/31 07:12:35;;;;;;;;;4.33;4.00;;;;;-147.17;100.00;-15917.19;5036020;28;52282;-47
2023/03/31 07:15:00;;;;;;;;;6.00;3.75;;;;;-147.17;100.00;-15917.19;5034979;28;51173;-47
2023/03/31 07:17:26;;;;;;;;;5.00;4.00;;;;;-147.17;100.00;-15917.19;5034955;28;51051;-46
2023/03/31 07:19:51;;;;;;;;;6.33;4.00;;;;;-147.17;100.00;-15917.19;5035009;28;51348;-46
2023/03/31 07:22:16;;;;;;;;;5.00;3.00;;;;;-147.17;100.00;-15917.19;5034635;28;51101;-45
2023/03/31 07:24:42;;;;;;;;;5.33;3.00;;;;;-147.17;100.00;-15917.19;5047893;28;51061;-46
2023/03/31 07:27:07;;;;;;;;;3.33;2.00;;;;;-147.17;100.00;-15917.19;5034567;28;51096;-49
2023/03/31 07:29:33;;;;;;;;;3.00;3.00;;;;;-147.17;100.00;-15917.19;5034735;28;51165;-46
2023/03/31 07:31:58;;;;;;;;;3.33;2.00;;;;;-147.17;100.00;-15917.19;5034889;28;51423;-46
2023/03/31 07:34:24;;;;;;;;;4.00;3.00;;;;;-147.17;100.00;-15917.19;5047928;28;51030;-49
2023/03/31 07:36:50;;;;;;;;;4.33;3.67;;;;;-147.17;100.00;-15917.19;5041702;28;51236;-48
2023/03/31 07:39:15;;;;;;;;;5.00;3.33;;;;;-147.17;100.00;-15917.19;5039215;28;51264;-49
2023/03/31 07:41:41;;;;;;;;;6.00;3.00;;;;;-147.17;100.00;-15917.19;5034295;28;51619;-46
2023/03/31 07:44:06;;;;;;;;;4.00;3.33;;;;;-147.17;100.00;-15917.19;5034328;28;51068;-47
2023/03/31 07:46:32;;;;;;;;;2.67;2.67;;;;;-147.17;100.00;-15917.19;5034048;28;51031;-45
2023/03/31 07:48:58;;;;;;;;;3.00;3.00;;;;;-147.17;100.00;-15917.19;5033995;28;50933;-46
2023/03/31 07:51:25;;;;;;;;;3.67;2.00;;;;;-147.17;100.00;-15917.19;5034583;28;52278;-46
2023/03/31 07:53:55;;;;;;;;;2.67;2.33;;;;;-147.17;100.00;-15917.19;5032504;28;51026;-50
2023/03/31 07:56:23;;;;;;;;;1.67;1.67;;;;;-147.17;100.00;-15917.19;5042013;28;51210;-47
2023/03/31 07:58:51;;;;;;;;;4.33;2.00;;;;;-147.17;100.00;-15917.19;5050243;28;51189;-47
2023/03/31 08:01:19;;;;;;;;;2.33;2.33;;;;;-147.17;100.00;-15917.19;5033857;28;52354;-47
2023/03/31 08:03:45;;;;;;;;;3.00;3.00;;;;;-147.17;100.00;-15917.19;5046142;28;51033;-47
2023/03/31 08:06:16;;;;;;;;;3.67;2.00;;;;;-147.17;100.00;-15917.19;5034317;28;51019;-48
2023/03/31 08:08:42;;;;;;;;;5.00;4.67;;;;;-147.17;100.00;-15917.19;5033924;28;51400;-46
2023/03/31 08:11:07;;;;;;;;;2.33;2.00;;;;;-147.17;100.00;-15917.19;5042780;28;51984;-48
2023/03/31 08:13:33;;;;;;;;;2.33;1.00;;;;;-147.17;100.00;-15917.19;5051732;28;51022;-50
2023/03/31 08:15:58;;;;;;;;;4.67;3.67;;;;;-147.17;100.00;-15917.19;5044585;28;51130;-46
2023/03/31 08:18:23;;;;;;;;;4.00;2.00;;;;;-147.17;100.00;-15917.19;5033709;28;51267;-46
2023/03/31 08:20:49;;;;;;;;;4.00;3.00;;;;;-147.17;100.00;-15917.19;5033532;28;51991;-49
2023/03/31 08:23:15;;;;;;;;;5.00;3.33;;;;;-147.17;100.00;-15917.19;5036576;28;51175;-48
2023/03/31 08:25:41;;;;;;;;;39.00;33.25;;;;;-147.17;100.00;-15917.19;5053561;28;51146;-49
2023/03/31 08:28:09;;;;;;;;;3.00;3.00;;;;;-147.17;100.00;-15917.19;5053977;28;51140;-48
2023/03/31 08:30:37;;;;;;;;;7.00;5.00;;;;;-147.17;100.00;-15917.19;5042234;28;52061;-47
2023/03/31 08:33:02;;;;;;;;;5.00;3.00;;;;;-147.17;100.00;-15917.19;5033701;28;51237;-47
2023/03/31 08:35:28;;;;;;;;;2.00;2.00;;;;;-147.17;100.00;-15917.19;5034248;28;51304;-48
2023/03/31 08:37:53;;;;;;;;;4.00;4.00;;;;;-147.17;100.00;-15917.19;5039574;28;51241;-47
2023/03/31 08:40:23;;;;;;;;;4.00;3.33;;;;;-147.17;100.00;-15917.19;5052170;28;51034;-47
2023/03/31 08:42:56;;;;;;;;;5.00;4.33;;;;;-147.17;100.00;-15917.19;5037696;28;51114;-45
2023/03/31 08:45:36;;;;;;;;;5.00;4.00;;;;;-147.17;100.00;-15917.19;5036078;28;50909;-46
2023/03/31 08:48:24;;;;;;;;;4.33;4.00;;;;;-147.17;100.00;-15917.19;5049384;28;51359;-48
2023/03/31 08:50:55;;;;;;;;;4.00;2.33;;;;;-147.17;100.00;-15917.19;5053013;28;53145;-48
2023/03/31 08:54:09;;;;;;;;;4.33;3.00;;;;;-147.17;100.00;-15917.19;5031669;28;51223;-47
2023/03/31 08:56:39;;;;;;;;;4.00;4.00;;;;;-147.17;100.00;-15917.19;5027744;28;51054;-47
2023/03/31 08:59:06;;;;;;;;;6.00;5.00;;;;;-147.17;100.00;-15917.19;5035271;28;51105;-47
2023/03/31 09:01:59;;;;;;;;;5.33;3.00;;;;;-147.17;100.00;-15917.19;5032770;28;51091;-50
2023/03/31 09:04:43;;;;;;;;;3.67;3.67;;;;;-147.17;100.00;-15917.19;5048807;28;51046;-51
2023/03/31 09:07:19;;;;;;;;;4.33;4.33;;;;;-147.17;100.00;-15917.19;5047118;28;51336;-50
2023/03/31 09:10:36;;;;;;;;;4.33;3.33;;;;;-147.17;100.00;-15917.19;5040069;28;51038;-50
2023/03/31 09:13:13;;;;;;;;;5.00;4.00;;;;;-147.17;100.00;-15917.19;5032814;28;52175;-47
2023/03/31 09:16:04;;;;;;;;;13.25;12.00;;;;;-147.17;100.00;-15917.19;5044047;28;50997;-49
2023/03/31 09:18:35;;;;;;;;;4.00;2.67;;;;;-147.17;100.00;-15917.19;5032712;28;51205;-47
2023/03/31 09:21:16;;;;;;;;;3.33;3.00;;;;;-147.17;100.00;-15917.19;5033122;28;50986;-47
2023/03/31 09:23:51;;;;;;;;;6.00;4.00;;;;;-147.17;100.00;-15917.19;5031857;28;52992;-47
2023/03/31 09:26:48;;;;;;;;;4.00;4.00;;;;;-147.17;100.00;-15917.19;5032307;28;50928;-46
2023/03/31 09:29:38;;;;;;;;;2.00;2.00;;;;;-147.17;100.00;-15917.19;5022124;28;51187;-48
2023/03/31 09:32:16;;;;;;;;;3.00;3.00;;;;;-147.17;100.00;-15917.19;5033290;28;50975;-47
2023/03/31 09:34:44;;;;;;;;;1.00;1.00;;;;;-147.17;100.00;-15917.19;5035637;28;50961;-47
2023/03/31 09:37:11;;;;;;;;;6.00;4.00;;;;;-147.17;100.00;-15917.19;5045331;28;51038;-47
2023/03/31 09:39:38;;;;;;;;;2.00;2.00;;;;;-147.17;100.00;-15917.19;5042165;28;50972;-47
2023/03/31 09:42:04;;;;;;;;;6.00;5.00;;;;;-147.17;100.00;-15917.19;5042847;28;51141;-48
2023/03/31 09:44:36;;;;;;;;;3.00;3.00;;;;;-147.17;100.00;-15917.19;5051026;28;51478;-48
2023/03/31 09:47:06;;;;;;;;;5.33;3.33;;;;;-147.17;100.00;-15917.19;5050755;28;51185;-47
2023/03/31 09:49:34;;;;;;;;;1.33;1.00;;;;;-147.17;100.00;-15917.19;5051849;28;50950;-48
2023/03/31 09:52:10;;;;;;;;;3.00;2.33;;;;;-147.17;100.00;-15917.19;5052180;28;51551;-48
2023/03/31 09:54:45;;;;;;;;;4.00;3.00;;;;;-147.17;100.00;-15915.72;5046916;28;52440;-46
2023/03/31 09:57:22;;;;;;;;;2.00;2.00;;;;;-147.17;100.00;-15917.19;5037446;28;50990;-47
2023/03/31 09:59:50;;;;;;;;;5.00;3.00;;;;;-147.17;100.00;-15917.19;5037534;28;51524;-46
2023/03/31 10:02:39;;;;;;;;;3.00;2.33;;;;;-147.17;100.00;-15915.72;5031961;28;51039;-48
2023/03/31 10:05:07;;;;;;;;;1.00;1.00;;;;;-147.17;100.00;-14924.75;5031531;28;50936;-48
2023/03/31 10:07:33;;;;;;;;;4.33;3.67;;;;;-147.17;100.00;-15915.72;5032123;28;51085;-49
2023/03/31 10:10:02;;;;;;;;;3.67;2.67;;;;;-147.17;100.00;-15420.25;5031491;28;51170;-46
2023/03/31 10:12:30;;;;;;;;;6.67;3.33;;;;;-147.17;100.00;-14924.75;5037634;28;50913;-47
2023/03/31 10:15:19;;;;;;;;;7.33;4.67;;;;;-147.17;100.00;-14676.94;5037317;28;51963;-47
2023/03/31 10:17:46;;;;;;;;;3.00;2.33;;;;;-147.17;100.00;-13437.75;5034433;28;51070;-47
2023/03/31 10:20:32;;;;;;;;;3.00;3.00;;;;;-147.17;100.00;-11702.25;5032052;28;51054;-46
2023/03/31 10:23:37;;;;;;;;;1.67;1.00;;;;;-147.17;100.00;-12446.13;5032608;28;51056;-47
2023/03/31 10:26:03;;;;;;;;;1.00;1.00;;;;;-147.17;100.00;-10710.16;5028053;28;52276;-50
2023/03/31 10:28:34;;;;;;;;;2.00;2.00;;;;;-147.17;100.00;-10462.09;5043178;28;50996;-48
2023/03/31 10:31:00;;;;;;;;;3.00;2.33;;;;;-147.17;100.00;-10710.16;5050907;28;51234;-48
2023/03/31 10:33:29;;;;;;;;;6.67;5.00;;;;;-147.17;100.00;-12941.97;5039162;28;50962;-45
2023/03/31 10:36:00;;;;;;;;;2.00;2.00;;;;;-147.17;100.00;-12198.19;5038338;28;51090;-47
2023/03/31 10:38:41;;;;;;;;;3.33;2.67;;;;;-147.17;100.00;-11702.25;5053068;28;51059;-48
2023/03/31 10:41:08;;;;;;;;;5.33;4.67;;;;;-147.17;100.00;-11702.25;5037839;28;50993;-48
2023/03/31 10:43:41;;;;;;;;;5.00;4.33;;;;;-147.17;100.00;-9469.69;5042165;28;50962;-46
2023/03/31 10:46:08;;;;;;;;;3.00;2.67;;;;;-147.17;100.00;-6987.56;5050514;28;52245;-48
2023/03/31 10:48:37;;;;;;;;;3.00;2.67;;;;;-147.17;100.00;-6242.59;5051473;28;51182;-49
2023/03/31 10:51:12;;;;;;;;;3.00;3.00;;;;;-147.17;100.00;-5497.50;5051540;28;50988;-49
2023/03/31 10:53:49;;;;;;;;;2.00;2.00;;;;;-147.17;100.00;-5000.69;5050604;28;51271;-49
2023/03/31 10:56:47;;;;;;;;;2.33;1.67;;;;;-147.17;100.00;-2018.47;5033174;28;51155;-49
2023/03/31 10:59:28;;;;;;;;;3.33;2.00;;;;;-147.17;100.00;-1521.19;5036271;28;51042;-50
2023/03/31 11:02:15;;;;;;;;;3.00;2.00;;;;;-147.17;100.00;-3509.84;5035730;28;50891;-49
2023/03/31 11:04:46;;;;;;;;;4.67;2.00;;;;;-147.17;100.00;-775.19;5041526;28;51277;-50
2023/03/31 11:08:05;;;;;;;;;2.67;1.00;;;;;-147.17;100.00;-1023.88;5030423;28;51119;-47
2023/03/31 11:10:44;;;;;;;;;2.00;2.00;;;;;-147.17;100.00;-3509.84;5001186;28;51227;-50
2023/03/31 11:13:39;;;;;;;;;2.00;2.00;;;;;-147.17;100.00;-775.19;5036630;28;51188;-48
2023/03/31 11:16:32;;;;;;;;;3.33;2.67;;;;;-147.17;100.00;-1272.53;5066877;28;51139;-49
2023/03/31 11:19:33;;;;;;;;;2.00;1.67;;;;;-147.17;100.00;-4255.34;5044181;28;51083;-47
2023/03/31 11:22:20;;;;;;;;;3.00;3.00;;;;;-147.17;100.00;-2267.06;4976566;28;51347;-48